Terminal Aerodrome Forecast
Issued by NWS

Home | Current Version | Previous Version | Text Only | Print | Product List | Glossary On
Versions: 1 2 3 4 5 6 7 8 9 10 11 12 13 14 15 16 17 18
190
FTUS46 KMTR 261120
TAFSTS
TAF
KSTS 261120Z 2612/2712 VRB02KT P6SM OVC015
     FM261730 16003KT P6SM SCT015 OVC030
     FM261900 19005KT P6SM SCT030
     FM262100 20008KT P6SM FEW030
     FM270300 17004KT P6SM SCT025
     FM270600 16003KT P6SM OVC015
     FM271000 VRB02KT P6SM OVC008=

USA.gov is the U.S. government's official web portal to all federal, state and local government web resources and services.